sensor_id;sensor_type;location;lat;lon;timestamp;temperature;humidity
19003;DHT22;9634;51.040;13.794;2022-08-11T00:00:01;16.70;99.90
19003;DHT22;9634;51.040;13.794;2022-08-11T00:05:08;16.50;99.90
19003;DHT22;9634;51.040;13.794;2022-08-11T00:10:17;16.50;99.90
19003;DHT22;9634;51.040;13.794;2022-08-11T00:15:20;16.60;99.90
19003;DHT22;9634;51.040;13.794;2022-08-11T00:20:29;16.50;99.90
19003;DHT22;9634;51.040;13.794;2022-08-11T00:25:37;16.30;99.90
19003;DHT22;9634;51.040;13.794;2022-08-11T00:30:40;16.30;99.90
19003;DHT22;9634;51.040;13.794;2022-08-11T00:35:44;16.50;99.90
19003;DHT22;9634;51.040;13.794;2022-08-11T00:40:56;16.40;99.90
19003;DHT22;9634;51.040;13.794;2022-08-11T00:46:10;16.20;99.90
19003;DHT22;9634;51.040;13.794;2022-08-11T00:51:23;16.30;99.90
19003;DHT22;9634;51.040;13.794;2022-08-11T00:56:56;16.10;99.90
19003;DHT22;9634;51.040;13.794;2022-08-11T01:02:15;16.10;99.90
19003;DHT22;9634;51.040;13.794;2022-08-11T01:07:44;16.10;99.90
19003;DHT22;9634;51.040;13.794;2022-08-11T01:13:04;16.10;99.90
19003;DHT22;9634;51.040;13.794;2022-08-11T01:18:55;15.90;99.90
19003;DHT22;9634;51.040;13.794;2022-08-11T01:24:34;15.80;99.90
19003;DHT22;9634;51.040;13.794;2022-08-11T01:35:55;15.60;99.90
19003;DHT22;9634;51.040;13.794;2022-08-11T01:41:33;15.50;99.90
19003;DHT22;9634;51.040;13.794;2022-08-11T01:47:09;15.60;99.90
19003;DHT22;9634;51.040;13.794;2022-08-11T01:52:47;15.60;99.90
19003;DHT22;9634;51.040;13.794;2022-08-11T01:58:03;15.40;99.90
19003;DHT22;9634;51.040;13.794;2022-08-11T02:03:13;15.30;99.90
19003;DHT22;9634;51.040;13.794;2022-08-11T02:08:33;15.20;99.90
19003;DHT22;9634;51.040;13.794;2022-08-11T02:13:45;15.20;99.90
19003;DHT22;9634;51.040;13.794;2022-08-11T02:18:52;15.40;99.90
19003;DHT22;9634;51.040;13.794;2022-08-11T02:24:19;15.30;99.90
19003;DHT22;9634;51.040;13.794;2022-08-11T02:29:31;15.20;99.90
19003;DHT22;9634;51.040;13.794;2022-08-11T02:34:43;15.10;99.90
19003;DHT22;9634;51.040;13.794;2022-08-11T02:39:55;15.00;99.90
19003;DHT22;9634;51.040;13.794;2022-08-11T02:45:34;15.00;99.90
19003;DHT22;9634;51.040;13.794;2022-08-11T02:50:46;15.00;99.90
19003;DHT22;9634;51.040;13.794;2022-08-11T02:56:04;15.00;99.90
19003;DHT22;9634;51.040;13.794;2022-08-11T03:01:16;15.10;99.90
19003;DHT22;9634;51.040;13.794;2022-08-11T03:06:30;15.00;99.90
19003;DHT22;9634;51.040;13.794;2022-08-11T03:11:51;14.90;99.90
19003;DHT22;9634;51.040;13.794;2022-08-11T03:17:22;14.80;99.90
19003;DHT22;9634;51.040;13.794;2022-08-11T03:22:33;14.70;99.90
19003;DHT22;9634;51.040;13.794;2022-08-11T03:27:49;14.70;99.90
19003;DHT22;9634;51.040;13.794;2022-08-11T03:33:14;14.70;99.90
19003;DHT22;9634;51.040;13.794;2022-08-11T03:38:48;14.60;99.90
19003;DHT22;9634;51.040;13.794;2022-08-11T03:44:05;14.60;99.90
19003;DHT22;9634;51.040;13.794;2022-08-11T03:49:24;14.50;99.90
19003;DHT22;9634;51.040;13.794;2022-08-11T03:54:39;14.30;99.90
19003;DHT22;9634;51.040;13.794;2022-08-11T04:17:36;14.40;99.90
19003;DHT22;9634;51.040;13.794;2022-08-11T04:23:06;14.60;99.90
19003;DHT22;9634;51.040;13.794;2022-08-11T04:28:41;14.70;99.90
19003;DHT22;9634;51.040;13.794;2022-08-11T04:33:58;14.80;99.90
19003;DHT22;9634;51.040;13.794;2022-08-11T04:39:14;14.90;99.90
19003;DHT22;9634;51.040;13.794;2022-08-11T04:44:52;14.90;99.90
19003;DHT22;9634;51.040;13.794;2022-08-11T04:50:16;15.00;99.90
19003;DHT22;9634;51.040;13.794;2022-08-11T04:56:10;15.20;99.90
19003;DHT22;9634;51.040;13.794;2022-08-11T05:01:42;15.30;99.90
19003;DHT22;9634;51.040;13.794;2022-08-11T05:07:30;15.40;99.90
19003;DHT22;9634;51.040;13.794;2022-08-11T05:12:41;15.50;99.90
19003;DHT22;9634;51.040;13.794;2022-08-11T05:17:55;15.70;99.90
19003;DHT22;9634;51.040;13.794;2022-08-11T05:23:14;15.80;99.90
19003;DHT22;9634;51.040;13.794;2022-08-11T05:28:39;16.10;99.90
19003;DHT22;9634;51.040;13.794;2022-08-11T05:34:07;16.20;99.90
19003;DHT22;9634;51.040;13.794;2022-08-11T05:39:33;16.50;99.90
19003;DHT22;9634;51.040;13.794;2022-08-11T05:45:04;16.70;99.90
19003;DHT22;9634;51.040;13.794;2022-08-11T05:50:28;17.00;99.90
19003;DHT22;9634;51.040;13.794;2022-08-11T05:55:50;17.20;99.90
19003;DHT22;9634;51.040;13.794;2022-08-11T06:01:12;17.50;99.90
19003;DHT22;9634;51.040;13.794;2022-08-11T06:06:15;17.80;99.90
19003;DHT22;9634;51.040;13.794;2022-08-11T06:11:18;18.00;99.90
19003;DHT22;9634;51.040;13.794;2022-08-11T06:16:24;18.20;99.90
19003;DHT22;9634;51.040;13.794;2022-08-11T06:21:28;18.50;99.90
19003;DHT22;9634;51.040;13.794;2022-08-11T06:26:36;18.70;99.90
19003;DHT22;9634;51.040;13.794;2022-08-11T06:31:39;19.10;99.90
19003;DHT22;9634;51.040;13.794;2022-08-11T06:36:50;19.40;99.90
19003;DHT22;9634;51.040;13.794;2022-08-11T06:42:02;19.70;99.90
19003;DHT22;9634;51.040;13.794;2022-08-11T06:47:16;20.10;99.90
19003;DHT22;9634;51.040;13.794;2022-08-11T06:52:28;20.30;99.90
19003;DHT22;9634;51.040;13.794;2022-08-11T06:57:35;20.50;99.90
19003;DHT22;9634;51.040;13.794;2022-08-11T07:02:59;20.70;99.90
19003;DHT22;9634;51.040;13.794;2022-08-11T07:08:31;20.90;99.90
19003;DHT22;9634;51.040;13.794;2022-08-11T07:14:06;21.30;99.90
19003;DHT22;9634;51.040;13.794;2022-08-11T07:19:28;21.60;98.10
19003;DHT22;9634;51.040;13.794;2022-08-11T07:24:53;21.90;96.40
19003;DHT22;9634;51.040;13.794;2022-08-11T07:30:16;22.20;94.30
19003;DHT22;9634;51.040;13.794;2022-08-11T07:35:22;22.50;92.90
19003;DHT22;9634;51.040;13.794;2022-08-11T07:40:26;22.70;91.90
19003;DHT22;9634;51.040;13.794;2022-08-11T07:45:30;23.00;89.50
19003;DHT22;9634;51.040;13.794;2022-08-11T07:50:53;23.20;85.60
19003;DHT22;9634;51.040;13.794;2022-08-11T07:56:13;23.60;82.70
19003;DHT22;9634;51.040;13.794;2022-08-11T08:01:20;23.90;77.10
19003;DHT22;9634;51.040;13.794;2022-08-11T08:06:40;24.20;74.80
19003;DHT22;9634;51.040;13.794;2022-08-11T08:12:01;24.80;68.10
19003;DHT22;9634;51.040;13.794;2022-08-11T08:17:22;24.90;63.40
19003;DHT22;9634;51.040;13.794;2022-08-11T08:22:43;25.20;59.10
19003;DHT22;9634;51.040;13.794;2022-08-11T08:27:49;25.70;56.60
19003;DHT22;9634;51.040;13.794;2022-08-11T08:32:53;25.90;54.20
19003;DHT22;9634;51.040;13.794;2022-08-11T08:37:57;26.00;51.70
19003;DHT22;9634;51.040;13.794;2022-08-11T08:43:03;26.30;50.00
19003;DHT22;9634;51.040;13.794;2022-08-11T08:48:12;27.30;44.20
19003;DHT22;9634;51.040;13.794;2022-08-11T08:53:19;28.30;40.60
19003;DHT22;9634;51.040;13.794;2022-08-11T08:58:23;28.60;36.40
19003;DHT22;9634;51.040;13.794;2022-08-11T09:03:27;28.50;34.20
19003;DHT22;9634;51.040;13.794;2022-08-11T09:08:30;28.10;34.40
19003;DHT22;9634;51.040;13.794;2022-08-11T09:13:33;27.80;33.40
19003;DHT22;9634;51.040;13.794;2022-08-11T09:18:37;27.50;33.60
19003;DHT22;9634;51.040;13.794;2022-08-11T09:23:41;28.30;31.30
19003;DHT22;9634;51.040;13.794;2022-08-11T09:29:02;28.50;31.60
19003;DHT22;9634;51.040;13.794;2022-08-11T09:34:07;28.80;30.40
19003;DHT22;9634;51.040;13.794;2022-08-11T09:39:11;31.70;25.80
19003;DHT22;9634;51.040;13.794;2022-08-11T09:44:33;32.70;23.30
19003;DHT22;9634;51.040;13.794;2022-08-11T09:49:56;31.80;23.00
19003;DHT22;9634;51.040;13.794;2022-08-11T09:55:02;31.70;23.50
19003;DHT22;9634;51.040;13.794;2022-08-11T10:00:07;33.70;20.50
19003;DHT22;9634;51.040;13.794;2022-08-11T10:05:17;36.30;16.60
19003;DHT22;9634;51.040;13.794;2022-08-11T10:10:39;35.90;15.80
19003;DHT22;9634;51.040;13.794;2022-08-11T10:15:42;35.90;15.40
19003;DHT22;9634;51.040;13.794;2022-08-11T10:20:50;37.70;13.00
19003;DHT22;9634;51.040;13.794;2022-08-11T10:25:54;38.70;11.40
19003;DHT22;9634;51.040;13.794;2022-08-11T10:31:15;39.60;9.90
19003;DHT22;9634;51.040;13.794;2022-08-11T10:36:38;42.10;7.00
19003;DHT22;9634;51.040;13.794;2022-08-11T10:41:46;42.00;5.50
19003;DHT22;9634;51.040;13.794;2022-08-11T10:47:07;43.30;4.70
19003;DHT22;9634;51.040;13.794;2022-08-11T10:52:47;43.50;3.80
19003;DHT22;9634;51.040;13.794;2022-08-11T10:58:07;41.70;4.70
19003;DHT22;9634;51.040;13.794;2022-08-11T11:03:30;42.00;4.10
19003;DHT22;9634;51.040;13.794;2022-08-11T11:08:37;42.10;3.60
19003;DHT22;9634;51.040;13.794;2022-08-11T11:13:54;42.10;3.80
19003;DHT22;9634;51.040;13.794;2022-08-11T11:19:14;44.80;1.60
19003;DHT22;9634;51.040;13.794;2022-08-11T11:24:32;47.20;1.00
19003;DHT22;9634;51.040;13.794;2022-08-11T11:29:55;48.70;1.00
19003;DHT22;9634;51.040;13.794;2022-08-11T11:35:19;49.80;1.00
19003;DHT22;9634;51.040;13.794;2022-08-11T11:40:28;50.30;1.00
19003;DHT22;9634;51.040;13.794;2022-08-11T11:45:30;51.00;1.00
19003;DHT22;9634;51.040;13.794;2022-08-11T11:50:35;50.40;1.00
19003;DHT22;9634;51.040;13.794;2022-08-11T11:55:40;49.90;1.00
19003;DHT22;9634;51.040;13.794;2022-08-11T12:00:43;49.90;1.00
19003;DHT22;9634;51.040;13.794;2022-08-11T12:06:03;50.50;1.00
19003;DHT22;9634;51.040;13.794;2022-08-11T12:11:11;51.30;1.00
19003;DHT22;9634;51.040;13.794;2022-08-11T12:16:34;50.80;1.00
19003;DHT22;9634;51.040;13.794;2022-08-11T12:21:38;50.50;1.00
19003;DHT22;9634;51.040;13.794;2022-08-11T12:27:03;52.50;1.00
19003;DHT22;9634;51.040;13.794;2022-08-11T12:32:26;55.30;1.00
19003;DHT22;9634;51.040;13.794;2022-08-11T12:37:30;55.40;1.00
19003;DHT22;9634;51.040;13.794;2022-08-11T12:42:35;55.50;1.00
19003;DHT22;9634;51.040;13.794;2022-08-11T12:48:04;56.10;1.00
19003;DHT22;9634;51.040;13.794;2022-08-11T12:53:27;57.40;1.00
19003;DHT22;9634;51.040;13.794;2022-08-11T12:58:32;59.40;1.00
19003;DHT22;9634;51.040;13.794;2022-08-11T13:03:34;58.20;1.00
19003;DHT22;9634;51.040;13.794;2022-08-11T13:08:55;59.00;1.00
19003;DHT22;9634;51.040;13.794;2022-08-11T13:14:01;56.10;1.00
19003;DHT22;9634;51.040;13.794;2022-08-11T13:19:05;54.50;1.00
19003;DHT22;9634;51.040;13.794;2022-08-11T13:24:07;54.80;1.00
19003;DHT22;9634;51.040;13.794;2022-08-11T13:29:11;56.40;1.00
19003;DHT22;9634;51.040;13.794;2022-08-11T13:34:15;58.00;1.00
19003;DHT22;9634;51.040;13.794;2022-08-11T13:39:19;57.40;1.00
19003;DHT22;9634;51.040;13.794;2022-08-11T13:44:26;58.80;1.00
19003;DHT22;9634;51.040;13.794;2022-08-11T13:49:30;59.30;1.00
19003;DHT22;9634;51.040;13.794;2022-08-11T13:54:35;60.20;1.00
19003;DHT22;9634;51.040;13.794;2022-08-11T13:59:41;60.20;1.00
19003;DHT22;9634;51.040;13.794;2022-08-11T14:04:49;60.50;1.00
19003;DHT22;9634;51.040;13.794;2022-08-11T14:09:56;59.60;1.00
19003;DHT22;9634;51.040;13.794;2022-08-11T14:15:06;58.80;1.00
19003;DHT22;9634;51.040;13.794;2022-08-11T14:20:12;59.40;1.00
19003;DHT22;9634;51.040;13.794;2022-08-11T14:25:17;58.40;1.00
19003;DHT22;9634;51.040;13.794;2022-08-11T14:30:21;58.20;1.00
19003;DHT22;9634;51.040;13.794;2022-08-11T14:35:41;59.20;1.00
19003;DHT22;9634;51.040;13.794;2022-08-11T14:40:45;60.30;1.00
19003;DHT22;9634;51.040;13.794;2022-08-11T14:46:07;59.50;1.00
19003;DHT22;9634;51.040;13.794;2022-08-11T14:51:27;59.20;1.00
19003;DHT22;9634;51.040;13.794;2022-08-11T14:56:29;58.90;1.00
19003;DHT22;9634;51.040;13.794;2022-08-11T15:01:39;59.80;1.00
19003;DHT22;9634;51.040;13.794;2022-08-11T15:07:00;59.80;1.00
19003;DHT22;9634;51.040;13.794;2022-08-11T15:12:02;59.20;1.00
19003;DHT22;9634;51.040;13.794;2022-08-11T15:17:18;59.00;1.00
19003;DHT22;9634;51.040;13.794;2022-08-11T15:22:20;59.10;1.00
19003;DHT22;9634;51.040;13.794;2022-08-11T15:27:42;58.70;1.00
19003;DHT22;9634;51.040;13.794;2022-08-11T15:33:07;57.70;1.00
19003;DHT22;9634;51.040;13.794;2022-08-11T15:38:27;56.80;1.00
19003;DHT22;9634;51.040;13.794;2022-08-11T15:43:39;57.20;1.00
19003;DHT22;9634;51.040;13.794;2022-08-11T15:49:03;54.70;1.00
19003;DHT22;9634;51.040;13.794;2022-08-11T15:54:08;53.40;1.00
19003;DHT22;9634;51.040;13.794;2022-08-11T15:59:13;53.30;1.00
19003;DHT22;9634;51.040;13.794;2022-08-11T16:04:47;54.40;1.00
19003;DHT22;9634;51.040;13.794;2022-08-11T16:09:52;54.70;1.00
19003;DHT22;9634;51.040;13.794;2022-08-11T16:15:00;54.30;1.00
19003;DHT22;9634;51.040;13.794;2022-08-11T16:20:23;54.00;1.00
19003;DHT22;9634;51.040;13.794;2022-08-11T16:25:26;53.40;1.00
19003;DHT22;9634;51.040;13.794;2022-08-11T16:30:30;52.40;1.00
19003;DHT22;9634;51.040;13.794;2022-08-11T16:35:36;51.70;1.00
19003;DHT22;9634;51.040;13.794;2022-08-11T16:41:06;50.50;1.00
19003;DHT22;9634;51.040;13.794;2022-08-11T16:46:12;49.40;1.00
19003;DHT22;9634;51.040;13.794;2022-08-11T16:51:34;49.30;1.00
19003;DHT22;9634;51.040;13.794;2022-08-11T16:56:42;48.80;1.00
19003;DHT22;9634;51.040;13.794;2022-08-11T17:01:50;47.80;1.00
19003;DHT22;9634;51.040;13.794;2022-08-11T17:06:55;47.20;1.00
19003;DHT22;9634;51.040;13.794;2022-08-11T17:12:30;46.20;1.00
19003;DHT22;9634;51.040;13.794;2022-08-11T17:17:52;45.60;1.00
19003;DHT22;9634;51.040;13.794;2022-08-11T17:22:56;44.40;1.00
19003;DHT22;9634;51.040;13.794;2022-08-11T17:28:30;42.50;1.00
19003;DHT22;9634;51.040;13.794;2022-08-11T17:33:34;41.30;1.00
19003;DHT22;9634;51.040;13.794;2022-08-11T17:38:55;40.80;1.20
19003;DHT22;9634;51.040;13.794;2022-08-11T17:43:58;39.70;1.90
19003;DHT22;9634;51.040;13.794;2022-08-11T17:49:20;38.80;2.60
19003;DHT22;9634;51.040;13.794;2022-08-11T17:54:24;37.50;3.50
19003;DHT22;9634;51.040;13.794;2022-08-11T17:59:45;36.10;4.50
19003;DHT22;9634;51.040;13.794;2022-08-11T18:04:56;33.60;6.90
19003;DHT22;9634;51.040;13.794;2022-08-11T18:10:03;31.00;9.80
19003;DHT22;9634;51.040;13.794;2022-08-11T18:15:23;28.90;12.10
19003;DHT22;9634;51.040;13.794;2022-08-11T18:20:43;27.90;13.90
19003;DHT22;9634;51.040;13.794;2022-08-11T18:26:05;27.00;15.30
19003;DHT22;9634;51.040;13.794;2022-08-11T18:31:27;26.10;16.60
19003;DHT22;9634;51.040;13.794;2022-08-11T18:36:51;25.40;18.10
19003;DHT22;9634;51.040;13.794;2022-08-11T18:42:16;24.70;19.40
19003;DHT22;9634;51.040;13.794;2022-08-11T18:47:39;24.10;20.50
19003;DHT22;9634;51.040;13.794;2022-08-11T18:52:59;23.70;21.50
19003;DHT22;9634;51.040;13.794;2022-08-11T18:58:26;23.40;22.10
19003;DHT22;9634;51.040;13.794;2022-08-11T19:03:47;23.00;23.20
19003;DHT22;9634;51.040;13.794;2022-08-11T19:09:11;22.80;23.80
19003;DHT22;9634;51.040;13.794;2022-08-11T19:14:34;22.50;24.30
19003;DHT22;9634;51.040;13.794;2022-08-11T19:19:55;22.20;25.30
19003;DHT22;9634;51.040;13.794;2022-08-11T19:25:16;22.00;26.50
19003;DHT22;9634;51.040;13.794;2022-08-11T19:30:38;21.60;27.10
19003;DHT22;9634;51.040;13.794;2022-08-11T19:35:59;21.30;27.60
19003;DHT22;9634;51.040;13.794;2022-08-11T19:41:21;21.00;28.10
19003;DHT22;9634;51.040;13.794;2022-08-11T19:46:44;20.90;29.00
19003;DHT22;9634;51.040;13.794;2022-08-11T19:52:05;20.90;29.10
19003;DHT22;9634;51.040;13.794;2022-08-11T19:57:25;20.80;30.00
19003;DHT22;9634;51.040;13.794;2022-08-11T20:02:46;20.70;31.20
19003;DHT22;9634;51.040;13.794;2022-08-11T20:08:06;20.40;31.10
19003;DHT22;9634;51.040;13.794;2022-08-11T20:13:26;20.50;30.70
19003;DHT22;9634;51.040;13.794;2022-08-11T20:18:49;20.30;31.70
19003;DHT22;9634;51.040;13.794;2022-08-11T20:24:10;20.20;32.60
19003;DHT22;9634;51.040;13.794;2022-08-11T20:29:31;20.10;33.80
19003;DHT22;9634;51.040;13.794;2022-08-11T20:34:54;20.00;34.60
19003;DHT22;9634;51.040;13.794;2022-08-11T20:40:17;19.90;35.60
19003;DHT22;9634;51.040;13.794;2022-08-11T20:45:39;19.70;36.70
19003;DHT22;9634;51.040;13.794;2022-08-11T20:51:00;19.70;38.30
19003;DHT22;9634;51.040;13.794;2022-08-11T20:56:22;19.50;39.10
19003;DHT22;9634;51.040;13.794;2022-08-11T21:01:42;19.30;40.90
19003;DHT22;9634;51.040;13.794;2022-08-11T21:07:04;19.10;42.90
19003;DHT22;9634;51.040;13.794;2022-08-11T21:12:25;19.00;44.80
19003;DHT22;9634;51.040;13.794;2022-08-11T21:17:47;18.90;46.90
19003;DHT22;9634;51.040;13.794;2022-08-11T21:23:09;18.80;49.70
19003;DHT22;9634;51.040;13.794;2022-08-11T21:28:31;18.70;51.30
19003;DHT22;9634;51.040;13.794;2022-08-11T21:33:52;18.50;54.20
19003;DHT22;9634;51.040;13.794;2022-08-11T21:39:18;18.40;55.70
19003;DHT22;9634;51.040;13.794;2022-08-11T21:44:41;18.40;58.70
19003;DHT22;9634;51.040;13.794;2022-08-11T21:50:01;18.20;60.00
19003;DHT22;9634;51.040;13.794;2022-08-11T21:55:22;18.20;61.80
19003;DHT22;9634;51.040;13.794;2022-08-11T22:00:43;18.20;64.50
19003;DHT22;9634;51.040;13.794;2022-08-11T22:06:03;18.20;65.00
19003;DHT22;9634;51.040;13.794;2022-08-11T22:11:25;18.20;66.80
19003;DHT22;9634;51.040;13.794;2022-08-11T22:16:45;17.90;70.70
19003;DHT22;9634;51.040;13.794;2022-08-11T22:22:05;18.00;75.70
19003;DHT22;9634;51.040;13.794;2022-08-11T22:27:26;17.90;78.20
19003;DHT22;9634;51.040;13.794;2022-08-11T22:32:46;17.90;80.40
19003;DHT22;9634;51.040;13.794;2022-08-11T22:38:07;18.00;81.50
19003;DHT22;9634;51.040;13.794;2022-08-11T22:43:29;18.00;83.20
19003;DHT22;9634;51.040;13.794;2022-08-11T22:48:49;17.70;87.40
19003;DHT22;9634;51.040;13.794;2022-08-11T22:54:09;17.40;91.90
19003;DHT22;9634;51.040;13.794;2022-08-11T22:59:30;17.20;92.30
19003;DHT22;9634;51.040;13.794;2022-08-11T23:04:51;17.10;93.10
19003;DHT22;9634;51.040;13.794;2022-08-11T23:10:11;16.90;95.40
19003;DHT22;9634;51.040;13.794;2022-08-11T23:15:33;16.80;96.80
19003;DHT22;9634;51.040;13.794;2022-08-11T23:20:53;16.70;98.30
19003;DHT22;9634;51.040;13.794;2022-08-11T23:26:17;16.70;99.90
19003;DHT22;9634;51.040;13.794;2022-08-11T23:31:38;16.70;99.90
19003;DHT22;9634;51.040;13.794;2022-08-11T23:36:58;16.50;99.90
19003;DHT22;9634;51.040;13.794;2022-08-11T23:42:18;16.30;99.90
19003;DHT22;9634;51.040;13.794;2022-08-11T23:47:40;16.20;99.90
19003;DHT22;9634;51.040;13.794;2022-08-11T23:53:00;16.10;99.90
19003;DHT22;9634;51.040;13.794;2022-08-11T23:58:21;16.00;99.90
